createdAt,value
2018-06-10T00:02:48.695Z,6.87
2018-06-10T00:07:52.646Z,6.77
2018-06-10T00:13:59.536Z,5.83
2018-06-10T00:19:03.511Z,6.13
2018-06-10T00:24:07.467Z,6.00
2018-06-10T00:29:17.019Z,12.90
2018-06-10T00:34:20.990Z,7.50
2018-06-10T00:39:24.995Z,12.33
2018-06-10T00:44:28.976Z,6.20
2018-06-10T00:49:32.974Z,10.77
2018-06-10T00:54:36.942Z,12.60
2018-06-10T00:59:40.679Z,7.70
2018-06-10T01:04:44.539Z,7.50
2018-06-10T01:09:48.503Z,9.67
2018-06-10T01:14:52.257Z,10.37
2018-06-10T01:19:56.143Z,11.07
2018-06-10T01:24:59.872Z,6.40
2018-06-10T01:30:03.751Z,6.13
2018-06-10T01:35:08.131Z,6.47
2018-06-10T01:40:11.868Z,6.60
2018-06-10T01:45:15.940Z,6.93
2018-06-10T01:50:19.933Z,6.80
2018-06-10T01:55:23.899Z,6.30
2018-06-10T02:00:27.907Z,6.97
2018-06-10T02:05:31.867Z,6.93
2018-06-10T02:10:35.639Z,7.87
2018-06-10T02:15:39.579Z,7.33
2018-06-10T02:20:43.554Z,7.50
2018-06-10T02:25:47.535Z,9.00
2018-06-10T02:30:51.577Z,10.83
2018-06-10T02:35:55.494Z,8.33
2018-06-10T02:40:59.395Z,7.77
2018-06-10T02:46:03.379Z,7.90
2018-06-10T02:51:07.371Z,7.63
2018-06-10T02:56:11.386Z,7.17
2018-06-10T03:01:15.395Z,7.10
2018-06-10T03:06:19.379Z,7.40
2018-06-10T03:11:23.352Z,7.23
2018-06-10T03:16:27.327Z,7.40
2018-06-10T03:21:31.263Z,6.60
2018-06-10T03:26:35.304Z,6.73
2018-06-10T03:31:39.207Z,8.33
2018-06-10T03:36:43.332Z,10.30
2018-06-10T03:41:47.302Z,8.93
2018-06-10T03:46:51.291Z,6.97
2018-06-10T03:51:55.275Z,6.33
2018-06-10T03:56:59.267Z,6.40
2018-06-10T04:02:04.895Z,6.27
2018-06-10T04:07:08.961Z,6.50
2018-06-10T04:12:12.943Z,5.67
2018-06-10T04:17:16.916Z,6.00
2018-06-10T04:22:20.930Z,6.00
2018-06-10T04:27:24.945Z,10.00
2018-06-10T04:32:28.918Z,6.40
2018-06-10T04:37:33.150Z,6.43
2018-06-10T04:42:37.139Z,6.47
2018-06-10T04:47:41.121Z,9.13
2018-06-10T04:52:45.135Z,8.03
2018-06-10T04:57:49.943Z,8.10
2018-06-10T05:02:53.921Z,6.70
2018-06-10T05:07:57.915Z,7.03
2018-06-10T05:13:01.878Z,6.50
2018-06-10T05:18:05.841Z,6.40
2018-06-10T05:23:09.806Z,6.23
2018-06-10T05:28:13.531Z,6.37
2018-06-10T05:33:17.386Z,8.57
2018-06-10T05:38:21.412Z,7.90
2018-06-10T05:43:25.399Z,8.90
2018-06-10T05:48:29.403Z,9.00
2018-06-10T05:53:33.367Z,8.63
2018-06-10T05:58:37.361Z,8.73
2018-06-10T06:03:41.338Z,8.37
2018-06-10T06:08:45.334Z,8.10
2018-06-10T06:13:49.313Z,7.70
2018-06-10T06:18:53.299Z,9.73
2018-06-10T06:23:57.300Z,10.67
2018-06-10T06:29:01.287Z,7.93
2018-06-10T06:34:05.267Z,9.83
2018-06-10T06:39:09.256Z,10.17
2018-06-10T06:44:13.247Z,10.23
2018-06-10T06:49:17.239Z,10.83
2018-06-10T06:54:21.213Z,10.33
2018-06-10T06:59:25.196Z,10.63
2018-06-10T07:04:29.140Z,11.93
2018-06-10T07:09:33.099Z,10.43
2018-06-10T07:14:37.052Z,12.83
2018-06-10T07:19:41.035Z,13.77
2018-06-10T07:24:44.801Z,11.97
2018-06-10T07:29:48.666Z,14.17
2018-06-10T07:34:52.630Z,18.27
2018-06-10T07:39:56.696Z,16.17
2018-06-10T07:45:00.655Z,16.23
2018-06-10T07:50:04.664Z,19.07
2018-06-10T07:55:08.653Z,17.80
2018-06-10T08:00:12.680Z,16.13
2018-06-10T08:05:16.406Z,16.87
2018-06-10T08:10:20.271Z,17.30
2018-06-10T08:15:24.234Z,16.77
2018-06-10T08:20:28.227Z,19.40
2018-06-10T08:25:32.206Z,25.17
2018-06-10T08:30:36.200Z,26.13
2018-06-10T08:35:39.961Z,26.70
2018-06-10T08:40:43.852Z,26.87
2018-06-10T08:45:47.572Z,29.00
2018-06-10T08:50:51.532Z,43.17
2018-06-10T08:55:55.522Z,28.80
2018-06-10T09:01:00.268Z,27.20
2018-06-10T09:06:04.257Z,27.03
2018-06-10T09:11:08.393Z,32.53
2018-06-10T09:16:12.423Z,26.70
2018-06-10T09:21:16.472Z,27.60
2018-06-10T09:26:20.474Z,30.73
2018-06-10T09:31:24.438Z,33.67
2018-06-10T09:36:28.419Z,32.77
2018-06-10T09:41:32.590Z,32.70
2018-06-10T09:46:36.591Z,31.83
2018-06-10T09:51:40.571Z,31.23
2018-06-10T09:56:44.584Z,32.43
2018-06-10T10:01:48.574Z,30.07
2018-06-10T10:06:52.643Z,31.27
2018-06-10T10:11:56.643Z,30.13
2018-06-10T10:17:00.629Z,29.07
2018-06-10T10:22:04.635Z,30.60
2018-06-10T10:27:08.606Z,24.83
2018-06-10T10:32:12.588Z,26.33
2018-06-10T10:37:16.638Z,25.60
2018-06-10T10:42:20.638Z,27.90
2018-06-10T10:47:24.655Z,28.27
2018-06-10T10:52:28.636Z,30.57
2018-06-10T10:57:32.636Z,33.43
2018-06-10T11:02:36.383Z,31.93
2018-06-10T11:07:40.279Z,32.73
2018-06-10T11:12:44.272Z,32.80
2018-06-10T11:17:48.216Z,32.40
2018-06-10T11:22:52.211Z,30.27
2018-06-10T11:27:56.191Z,28.40
2018-06-10T11:32:59.937Z,23.17
2018-06-10T11:38:03.802Z,23.53
2018-06-10T11:43:07.568Z,20.77
2018-06-10T11:48:11.437Z,21.27
2018-06-10T11:53:15.407Z,22.90
2018-06-10T11:58:19.379Z,23.73
2018-06-10T12:03:23.402Z,19.90
2018-06-10T12:08:27.424Z,21.30
2018-06-10T12:13:31.375Z,20.07
2018-06-10T12:18:35.398Z,19.60
2018-06-10T12:23:39.359Z,18.27
2018-06-10T12:28:43.359Z,17.83
2018-06-10T12:33:47.352Z,15.27
2018-06-10T12:38:52.067Z,13.33
2018-06-10T12:43:56.044Z,14.47
2018-06-10T12:49:00.608Z,13.77
2018-06-10T12:54:04.557Z,12.37
2018-06-10T12:59:08.511Z,10.97
2018-06-10T13:04:12.546Z,10.20
2018-06-10T13:09:16.596Z,9.80
2018-06-10T13:14:51.112Z,8.53
2018-06-10T13:19:55.078Z,7.90
2018-06-10T13:24:58.816Z,8.13
2018-06-10T13:30:02.687Z,8.40
2018-06-10T13:35:06.642Z,8.53
2018-06-10T13:40:10.608Z,7.97
2018-06-10T13:45:14.637Z,7.20
2018-06-10T13:50:18.614Z,7.23
2018-06-10T13:55:22.349Z,7.13
2018-06-10T14:00:26.219Z,6.23
2018-06-10T14:05:30.232Z,7.00
2018-06-10T14:10:34.205Z,7.93
2018-06-10T14:15:38.214Z,7.00
2018-06-10T14:20:42.220Z,12.37
2018-06-10T14:25:46.184Z,9.67
2018-06-10T14:30:53.469Z,7.37
2018-06-10T14:35:57.506Z,6.20
2018-06-10T14:41:01.506Z,11.00
2018-06-10T14:46:05.687Z,6.93
2018-06-10T14:51:09.668Z,6.20
2018-06-10T14:56:13.652Z,6.50
2018-06-10T15:01:17.636Z,8.53
2018-06-10T15:06:21.382Z,6.73
2018-06-10T15:11:25.214Z,8.53
2018-06-10T15:16:29.283Z,6.70
2018-06-10T15:21:35.171Z,5.73
2018-06-10T15:26:38.897Z,6.10
2018-06-10T15:31:42.742Z,6.03
2018-06-10T15:36:46.812Z,8.83
2018-06-10T15:41:50.800Z,6.00
2018-06-10T15:46:54.785Z,6.33
2018-06-10T15:51:58.742Z,6.47
2018-06-10T15:57:03.678Z,5.90
2018-06-10T16:02:09.405Z,5.40
2018-06-10T16:07:13.387Z,6.10
2018-06-10T16:12:17.372Z,7.97
2018-06-10T16:17:22.148Z,6.73
2018-06-10T16:22:26.102Z,7.63
2018-06-10T16:27:30.174Z,6.63
2018-06-10T16:32:34.156Z,7.83
2018-06-10T16:37:37.926Z,5.60
2018-06-10T16:42:41.732Z,7.33
2018-06-10T16:47:45.732Z,5.67
2018-06-10T16:52:49.748Z,5.60
2018-06-10T16:57:53.748Z,6.12
2018-06-10T17:02:57.800Z,5.97
2018-06-10T17:08:01.902Z,6.20
2018-06-10T17:13:05.772Z,6.73
2018-06-10T17:18:09.747Z,6.80
2018-06-10T17:23:13.750Z,6.50
2018-06-10T17:28:17.761Z,6.33
2018-06-10T17:33:21.708Z,5.93
2018-06-10T17:38:25.686Z,6.60
2018-06-10T17:43:29.707Z,6.47
2018-06-10T17:48:33.474Z,6.80
2018-06-10T17:53:37.346Z,5.80
2018-06-10T17:58:41.303Z,6.17
2018-06-10T18:03:45.358Z,6.47
2018-06-10T18:08:49.347Z,6.50
2018-06-10T18:13:55.950Z,6.20
2018-06-10T18:18:59.813Z,5.77
2018-06-10T18:24:03.800Z,5.93
2018-06-10T18:29:07.537Z,6.17
2018-06-10T18:34:11.399Z,6.10
2018-06-10T18:39:16.359Z,6.90
2018-06-10T18:44:20.324Z,6.53
2018-06-10T18:49:24.328Z,7.03
2018-06-10T18:54:30.841Z,6.03
2018-06-10T18:59:34.695Z,6.10
2018-06-10T19:04:38.692Z,6.27
2018-06-10T19:10:45.629Z,6.63
2018-06-10T19:15:49.604Z,6.43
2018-06-10T19:20:53.579Z,6.53
2018-06-10T19:25:58.074Z,7.33
2018-06-10T19:31:01.917Z,6.93
2018-06-10T19:36:06.111Z,7.70
2018-06-10T19:41:10.100Z,6.90
2018-06-10T19:46:14.076Z,6.93
2018-06-10T19:51:19.008Z,6.97
2018-06-10T19:56:23.283Z,7.40
2018-06-10T20:01:27.259Z,7.23
2018-06-10T20:06:31.253Z,7.40
2018-06-10T20:11:35.279Z,8.63
2018-06-10T20:16:39.273Z,7.53
2018-06-10T20:21:43.260Z,8.27
2018-06-10T20:27:49.979Z,7.07
2018-06-10T20:32:53.608Z,7.60
2018-06-10T20:37:59.044Z,7.00
2018-06-10T20:43:02.993Z,7.40
2018-06-10T20:48:06.987Z,7.10
2018-06-10T20:53:11.136Z,7.47
2018-06-10T20:58:15.160Z,7.53
2018-06-10T21:03:19.913Z,8.30
2018-06-10T21:08:23.948Z,8.80
2018-06-10T21:13:27.877Z,8.30
2018-06-10T21:18:31.847Z,8.23
2018-06-10T21:23:35.804Z,8.87
2018-06-10T21:28:40.515Z,8.43
2018-06-10T21:33:45.119Z,8.60
2018-06-10T21:38:49.465Z,8.93
2018-06-10T21:43:53.933Z,9.67
2018-06-10T21:48:59.140Z,9.53
2018-06-10T21:54:03.878Z,10.00
2018-06-10T21:59:08.866Z,9.17
2018-06-10T22:04:13.763Z,9.77
2018-06-10T22:09:20.135Z,10.27
2018-06-10T22:14:24.392Z,10.20
2018-06-10T22:19:28.670Z,8.40
2018-06-10T22:24:33.946Z,10.30
2018-06-10T22:29:38.335Z,10.13
2018-06-10T22:34:42.439Z,10.57
2018-06-10T22:39:46.963Z,10.50
2018-06-10T22:44:50.962Z,9.37
2018-06-10T22:49:54.934Z,10.17
2018-06-10T22:54:58.879Z,8.93
2018-06-10T23:00:02.897Z,8.10
2018-06-10T23:05:06.876Z,8.70
2018-06-10T23:10:10.879Z,8.77
2018-06-10T23:15:15.607Z,9.20
2018-06-10T23:20:19.579Z,8.50
2018-06-10T23:25:23.548Z,8.80
2018-06-10T23:30:27.283Z,7.13
2018-06-10T23:35:31.154Z,8.23
2018-06-10T23:40:34.891Z,7.63
2018-06-10T23:45:38.770Z,7.77
2018-06-10T23:50:42.761Z,8.33
2018-06-10T23:55:46.803Z,9.50
